sensor_id;sensor_type;location;lat;lon;timestamp;temperature;humidity
4615;DHT22;2320;51.362;6.946;2023-08-30T00:01:57;14.10;99.90
4615;DHT22;2320;51.362;6.946;2023-08-30T00:04:23;14.10;99.90
4615;DHT22;2320;51.362;6.946;2023-08-30T00:06:48;14.30;99.90
4615;DHT22;2320;51.362;6.946;2023-08-30T00:09:13;14.20;99.90
4615;DHT22;2320;51.362;6.946;2023-08-30T00:11:39;14.20;99.90
4615;DHT22;2320;51.362;6.946;2023-08-30T00:14:05;14.20;99.90
4615;DHT22;2320;51.362;6.946;2023-08-30T00:16:31;14.20;99.90
4615;DHT22;2320;51.362;6.946;2023-08-30T00:18:57;14.10;99.90
4615;DHT22;2320;51.362;6.946;2023-08-30T00:21:22;14.10;99.90
4615;DHT22;2320;51.362;6.946;2023-08-30T00:23:48;14.00;99.90
4615;DHT22;2320;51.362;6.946;2023-08-30T00:26:13;14.00;99.90
4615;DHT22;2320;51.362;6.946;2023-08-30T00:28:39;14.00;99.90
4615;DHT22;2320;51.362;6.946;2023-08-30T00:31:05;14.00;99.90
4615;DHT22;2320;51.362;6.946;2023-08-30T00:33:30;13.90;99.90
4615;DHT22;2320;51.362;6.946;2023-08-30T00:35:56;13.90;99.90
4615;DHT22;2320;51.362;6.946;2023-08-30T00:38:22;13.90;99.90
4615;DHT22;2320;51.362;6.946;2023-08-30T00:40:47;13.90;99.90
4615;DHT22;2320;51.362;6.946;2023-08-30T00:43:13;13.90;99.90
4615;DHT22;2320;51.362;6.946;2023-08-30T00:45:39;14.00;99.90
4615;DHT22;2320;51.362;6.946;2023-08-30T00:48:05;14.00;99.90
4615;DHT22;2320;51.362;6.946;2023-08-30T00:50:31;13.90;99.90
4615;DHT22;2320;51.362;6.946;2023-08-30T00:52:56;13.90;99.90
4615;DHT22;2320;51.362;6.946;2023-08-30T00:55:22;13.90;99.90
4615;DHT22;2320;51.362;6.946;2023-08-30T00:57:47;13.90;99.90
4615;DHT22;2320;51.362;6.946;2023-08-30T01:00:13;13.90;99.90
4615;DHT22;2320;51.362;6.946;2023-08-30T01:02:38;13.80;99.90
4615;DHT22;2320;51.362;6.946;2023-08-30T01:05:04;13.80;99.90
4615;DHT22;2320;51.362;6.946;2023-08-30T01:07:30;13.80;99.90
4615;DHT22;2320;51.362;6.946;2023-08-30T01:09:56;13.80;99.90
4615;DHT22;2320;51.362;6.946;2023-08-30T01:12:22;13.70;99.90
4615;DHT22;2320;51.362;6.946;2023-08-30T01:15:00;13.60;99.90
4615;DHT22;2320;51.362;6.946;2023-08-30T01:17:28;13.60;99.90
4615;DHT22;2320;51.362;6.946;2023-08-30T01:20:00;13.50;99.90
4615;DHT22;2320;51.362;6.946;2023-08-30T01:27:35;13.30;99.90
4615;DHT22;2320;51.362;6.946;2023-08-30T01:30:02;13.30;99.90
4615;DHT22;2320;51.362;6.946;2023-08-30T01:32:30;13.30;99.90
4615;DHT22;2320;51.362;6.946;2023-08-30T01:34:56;13.30;99.90
4615;DHT22;2320;51.362;6.946;2023-08-30T01:37:23;13.20;99.90
4615;DHT22;2320;51.362;6.946;2023-08-30T01:39:49;13.20;99.90
4615;DHT22;2320;51.362;6.946;2023-08-30T01:42:15;13.20;99.90
4615;DHT22;2320;51.362;6.946;2023-08-30T01:44:47;13.10;99.90
4615;DHT22;2320;51.362;6.946;2023-08-30T01:47:13;13.10;99.90
4615;DHT22;2320;51.362;6.946;2023-08-30T01:49:40;13.10;99.90
4615;DHT22;2320;51.362;6.946;2023-08-30T01:52:06;13.10;99.90
4615;DHT22;2320;51.362;6.946;2023-08-30T01:54:32;13.10;99.90
4615;DHT22;2320;51.362;6.946;2023-08-30T01:56:58;13.00;99.90
4615;DHT22;2320;51.362;6.946;2023-08-30T01:59:24;13.00;99.90
4615;DHT22;2320;51.362;6.946;2023-08-30T02:01:50;12.90;99.90
4615;DHT22;2320;51.362;6.946;2023-08-30T02:04:16;12.90;99.90
4615;DHT22;2320;51.362;6.946;2023-08-30T02:06:42;12.90;99.90
4615;DHT22;2320;51.362;6.946;2023-08-30T02:11:38;12.80;99.90
4615;DHT22;2320;51.362;6.946;2023-08-30T02:14:06;12.80;99.90
4615;DHT22;2320;51.362;6.946;2023-08-30T02:16:34;12.80;99.90
4615;DHT22;2320;51.362;6.946;2023-08-30T02:19:00;12.80;99.90
4615;DHT22;2320;51.362;6.946;2023-08-30T02:21:27;12.80;99.90
4615;DHT22;2320;51.362;6.946;2023-08-30T02:23:53;12.80;99.90
4615;DHT22;2320;51.362;6.946;2023-08-30T02:26:19;12.70;99.90
4615;DHT22;2320;51.362;6.946;2023-08-30T02:28:45;12.70;99.90
4615;DHT22;2320;51.362;6.946;2023-08-30T02:31:10;12.70;99.90
4615;DHT22;2320;51.362;6.946;2023-08-30T02:33:36;12.70;99.90
4615;DHT22;2320;51.362;6.946;2023-08-30T02:36:03;12.70;99.90
4615;DHT22;2320;51.362;6.946;2023-08-30T02:38:28;12.70;99.90
4615;DHT22;2320;51.362;6.946;2023-08-30T02:40:54;12.80;99.90
4615;DHT22;2320;51.362;6.946;2023-08-30T02:43:19;12.80;99.90
4615;DHT22;2320;51.362;6.946;2023-08-30T02:45:45;12.90;99.90
4615;DHT22;2320;51.362;6.946;2023-08-30T02:48:10;12.80;99.90
4615;DHT22;2320;51.362;6.946;2023-08-30T02:50:36;12.80;99.90
4615;DHT22;2320;51.362;6.946;2023-08-30T02:53:01;12.80;99.90
4615;DHT22;2320;51.362;6.946;2023-08-30T02:55:27;12.80;99.90
4615;DHT22;2320;51.362;6.946;2023-08-30T02:57:52;12.70;99.90
4615;DHT22;2320;51.362;6.946;2023-08-30T03:00:18;12.70;99.90
4615;DHT22;2320;51.362;6.946;2023-08-30T03:02:43;12.70;99.90
4615;DHT22;2320;51.362;6.946;2023-08-30T03:05:09;12.70;99.90
4615;DHT22;2320;51.362;6.946;2023-08-30T03:07:35;12.60;99.90
4615;DHT22;2320;51.362;6.946;2023-08-30T03:10:00;12.70;99.90
4615;DHT22;2320;51.362;6.946;2023-08-30T03:12:26;12.70;99.90
4615;DHT22;2320;51.362;6.946;2023-08-30T03:14:51;12.60;99.90
4615;DHT22;2320;51.362;6.946;2023-08-30T03:17:17;12.60;99.90
4615;DHT22;2320;51.362;6.946;2023-08-30T03:19:42;12.50;99.90
4615;DHT22;2320;51.362;6.946;2023-08-30T03:22:08;12.50;99.90
4615;DHT22;2320;51.362;6.946;2023-08-30T03:24:33;12.60;99.90
4615;DHT22;2320;51.362;6.946;2023-08-30T03:26:59;12.50;99.90
4615;DHT22;2320;51.362;6.946;2023-08-30T03:29:25;12.50;99.90
4615;DHT22;2320;51.362;6.946;2023-08-30T03:31:50;12.40;99.90
4615;DHT22;2320;51.362;6.946;2023-08-30T03:34:16;12.40;99.90
4615;DHT22;2320;51.362;6.946;2023-08-30T03:36:41;12.40;99.90
4615;DHT22;2320;51.362;6.946;2023-08-30T03:39:09;12.30;99.90
4615;DHT22;2320;51.362;6.946;2023-08-30T03:41:34;12.30;99.90
4615;DHT22;2320;51.362;6.946;2023-08-30T03:44:00;12.20;99.90
4615;DHT22;2320;51.362;6.946;2023-08-30T03:46:25;12.30;99.90
4615;DHT22;2320;51.362;6.946;2023-08-30T03:48:51;12.30;99.90
4615;DHT22;2320;51.362;6.946;2023-08-30T03:51:17;12.30;99.90
4615;DHT22;2320;51.362;6.946;2023-08-30T03:53:42;12.30;99.90
4615;DHT22;2320;51.362;6.946;2023-08-30T03:56:08;12.20;99.90
4615;DHT22;2320;51.362;6.946;2023-08-30T03:58:34;12.20;99.90
4615;DHT22;2320;51.362;6.946;2023-08-30T04:00:59;12.30;99.90
4615;DHT22;2320;51.362;6.946;2023-08-30T04:03:24;12.20;99.90
4615;DHT22;2320;51.362;6.946;2023-08-30T04:05:56;12.10;99.90
4615;DHT22;2320;51.362;6.946;2023-08-30T04:08:24;12.00;99.90
4615;DHT22;2320;51.362;6.946;2023-08-30T04:10:52;12.00;99.90
4615;DHT22;2320;51.362;6.946;2023-08-30T04:13:17;12.00;99.90
4615;DHT22;2320;51.362;6.946;2023-08-30T04:15:43;12.00;99.90
4615;DHT22;2320;51.362;6.946;2023-08-30T04:18:08;12.00;99.90
4615;DHT22;2320;51.362;6.946;2023-08-30T04:20:34;12.00;99.90
4615;DHT22;2320;51.362;6.946;2023-08-30T04:23:00;12.00;99.90
4615;DHT22;2320;51.362;6.946;2023-08-30T04:25:28;12.00;99.90
4615;DHT22;2320;51.362;6.946;2023-08-30T04:27:54;11.90;99.90
4615;DHT22;2320;51.362;6.946;2023-08-30T04:30:20;12.00;99.90
4615;DHT22;2320;51.362;6.946;2023-08-30T04:32:45;11.90;99.90
4615;DHT22;2320;51.362;6.946;2023-08-30T04:35:11;12.00;99.90
4615;DHT22;2320;51.362;6.946;2023-08-30T04:37:36;12.00;99.90
4615;DHT22;2320;51.362;6.946;2023-08-30T04:40:06;11.90;99.90
4615;DHT22;2320;51.362;6.946;2023-08-30T04:42:32;11.90;99.90
4615;DHT22;2320;51.362;6.946;2023-08-30T04:44:57;12.00;99.90
4615;DHT22;2320;51.362;6.946;2023-08-30T04:47:26;12.20;99.90
4615;DHT22;2320;51.362;6.946;2023-08-30T04:49:52;12.10;99.90
4615;DHT22;2320;51.362;6.946;2023-08-30T04:52:17;12.10;99.90
4615;DHT22;2320;51.362;6.946;2023-08-30T04:54:43;12.20;99.90
4615;DHT22;2320;51.362;6.946;2023-08-30T04:57:11;12.30;99.90
4615;DHT22;2320;51.362;6.946;2023-08-30T04:59:40;12.40;99.90
4615;DHT22;2320;51.362;6.946;2023-08-30T05:02:05;12.40;99.90
4615;DHT22;2320;51.362;6.946;2023-08-30T05:04:31;12.50;99.90
4615;DHT22;2320;51.362;6.946;2023-08-30T05:06:56;12.50;99.90
4615;DHT22;2320;51.362;6.946;2023-08-30T05:09:22;12.40;99.90
4615;DHT22;2320;51.362;6.946;2023-08-30T05:11:50;12.40;99.90
4615;DHT22;2320;51.362;6.946;2023-08-30T05:14:16;12.50;99.90
4615;DHT22;2320;51.362;6.946;2023-08-30T05:16:41;12.60;99.90
4615;DHT22;2320;51.362;6.946;2023-08-30T05:19:07;12.60;99.90
4615;DHT22;2320;51.362;6.946;2023-08-30T05:21:32;12.70;99.90
4615;DHT22;2320;51.362;6.946;2023-08-30T05:23:58;12.80;99.90
4615;DHT22;2320;51.362;6.946;2023-08-30T05:26:23;12.80;99.90
4615;DHT22;2320;51.362;6.946;2023-08-30T05:28:48;13.00;99.90
4615;DHT22;2320;51.362;6.946;2023-08-30T05:31:14;13.30;99.90
4615;DHT22;2320;51.362;6.946;2023-08-30T05:33:39;13.50;99.90
4615;DHT22;2320;51.362;6.946;2023-08-30T05:36:05;13.70;99.90
4615;DHT22;2320;51.362;6.946;2023-08-30T05:38:30;13.90;99.90
4615;DHT22;2320;51.362;6.946;2023-08-30T05:40:56;14.00;99.90
4615;DHT22;2320;51.362;6.946;2023-08-30T05:43:21;14.20;99.90
4615;DHT22;2320;51.362;6.946;2023-08-30T05:45:47;14.40;99.90
4615;DHT22;2320;51.362;6.946;2023-08-30T05:48:12;14.50;99.90
4615;DHT22;2320;51.362;6.946;2023-08-30T05:50:38;14.70;99.90
4615;DHT22;2320;51.362;6.946;2023-08-30T05:53:04;14.80;99.90
4615;DHT22;2320;51.362;6.946;2023-08-30T05:55:30;15.00;99.90
4615;DHT22;2320;51.362;6.946;2023-08-30T05:57:55;15.20;99.90
4615;DHT22;2320;51.362;6.946;2023-08-30T06:00:21;15.40;99.90
4615;DHT22;2320;51.362;6.946;2023-08-30T06:02:47;15.50;99.90
4615;DHT22;2320;51.362;6.946;2023-08-30T06:05:12;15.80;99.90
4615;DHT22;2320;51.362;6.946;2023-08-30T06:07:38;16.00;99.90
4615;DHT22;2320;51.362;6.946;2023-08-30T06:10:03;15.90;99.90
4615;DHT22;2320;51.362;6.946;2023-08-30T06:12:30;16.20;99.90
4615;DHT22;2320;51.362;6.946;2023-08-30T06:14:55;16.60;99.90
4615;DHT22;2320;51.362;6.946;2023-08-30T06:17:21;16.80;99.90
4615;DHT22;2320;51.362;6.946;2023-08-30T06:19:47;17.20;99.90
4615;DHT22;2320;51.362;6.946;2023-08-30T06:22:12;17.70;99.90
4615;DHT22;2320;51.362;6.946;2023-08-30T06:24:38;17.90;99.90
4615;DHT22;2320;51.362;6.946;2023-08-30T06:27:04;18.00;99.90
4615;DHT22;2320;51.362;6.946;2023-08-30T06:29:29;18.30;99.90
4615;DHT22;2320;51.362;6.946;2023-08-30T06:31:55;18.60;99.90
4615;DHT22;2320;51.362;6.946;2023-08-30T06:34:20;19.00;99.90
4615;DHT22;2320;51.362;6.946;2023-08-30T06:36:45;19.20;99.90
4615;DHT22;2320;51.362;6.946;2023-08-30T06:39:11;19.60;99.90
4615;DHT22;2320;51.362;6.946;2023-08-30T06:41:36;19.70;99.90
4615;DHT22;2320;51.362;6.946;2023-08-30T06:44:02;20.10;99.90
4615;DHT22;2320;51.362;6.946;2023-08-30T06:46:28;20.40;99.90
4615;DHT22;2320;51.362;6.946;2023-08-30T06:48:54;20.90;99.90
4615;DHT22;2320;51.362;6.946;2023-08-30T06:51:19;21.20;99.90
4615;DHT22;2320;51.362;6.946;2023-08-30T06:53:45;21.40;99.90
4615;DHT22;2320;51.362;6.946;2023-08-30T06:56:12;22.20;99.90
4615;DHT22;2320;51.362;6.946;2023-08-30T06:58:38;22.60;99.90
4615;DHT22;2320;51.362;6.946;2023-08-30T07:01:03;22.60;99.90
4615;DHT22;2320;51.362;6.946;2023-08-30T07:03:28;23.30;99.90
4615;DHT22;2320;51.362;6.946;2023-08-30T07:05:54;23.90;99.90
4615;DHT22;2320;51.362;6.946;2023-08-30T07:08:19;23.30;99.90
4615;DHT22;2320;51.362;6.946;2023-08-30T07:10:45;23.70;99.90
4615;DHT22;2320;51.362;6.946;2023-08-30T07:13:10;24.10;99.90
4615;DHT22;2320;51.362;6.946;2023-08-30T07:15:38;24.30;99.90
4615;DHT22;2320;51.362;6.946;2023-08-30T07:18:03;24.10;99.90
4615;DHT22;2320;51.362;6.946;2023-08-30T07:20:29;24.40;99.90
4615;DHT22;2320;51.362;6.946;2023-08-30T07:22:54;24.70;99.90
4615;DHT22;2320;51.362;6.946;2023-08-30T07:25:20;24.70;99.90
4615;DHT22;2320;51.362;6.946;2023-08-30T07:27:45;24.30;99.90
4615;DHT22;2320;51.362;6.946;2023-08-30T07:30:11;24.70;99.90
4615;DHT22;2320;51.362;6.946;2023-08-30T07:32:37;24.80;99.90
4615;DHT22;2320;51.362;6.946;2023-08-30T07:35:03;25.10;99.90
4615;DHT22;2320;51.362;6.946;2023-08-30T07:37:29;24.50;99.90
4615;DHT22;2320;51.362;6.946;2023-08-30T07:39:54;24.80;99.90
4615;DHT22;2320;51.362;6.946;2023-08-30T07:42:20;25.20;99.90
4615;DHT22;2320;51.362;6.946;2023-08-30T07:44:45;26.30;99.90
4615;DHT22;2320;51.362;6.946;2023-08-30T07:47:11;26.50;99.90
4615;DHT22;2320;51.362;6.946;2023-08-30T07:49:36;26.30;99.90
4615;DHT22;2320;51.362;6.946;2023-08-30T07:52:02;26.40;99.90
4615;DHT22;2320;51.362;6.946;2023-08-30T07:54:28;25.90;99.90
4615;DHT22;2320;51.362;6.946;2023-08-30T07:56:54;26.60;99.90
4615;DHT22;2320;51.362;6.946;2023-08-30T07:59:19;26.80;99.90
4615;DHT22;2320;51.362;6.946;2023-08-30T08:01:45;27.30;99.90
4615;DHT22;2320;51.362;6.946;2023-08-30T08:04:11;28.10;99.90
4615;DHT22;2320;51.362;6.946;2023-08-30T08:06:36;27.10;99.90
4615;DHT22;2320;51.362;6.946;2023-08-30T08:09:02;27.00;99.90
4615;DHT22;2320;51.362;6.946;2023-08-30T08:11:27;28.00;99.90
4615;DHT22;2320;51.362;6.946;2023-08-30T08:13:53;28.10;99.90
4615;DHT22;2320;51.362;6.946;2023-08-30T08:16:19;27.80;99.90
4615;DHT22;2320;51.362;6.946;2023-08-30T08:18:45;28.40;99.90
4615;DHT22;2320;51.362;6.946;2023-08-30T08:21:11;29.40;99.90
4615;DHT22;2320;51.362;6.946;2023-08-30T08:23:36;29.40;99.90
4615;DHT22;2320;51.362;6.946;2023-08-30T08:26:02;29.30;99.90
4615;DHT22;2320;51.362;6.946;2023-08-30T08:28:28;28.50;99.90
4615;DHT22;2320;51.362;6.946;2023-08-30T08:30:53;27.60;99.90
4615;DHT22;2320;51.362;6.946;2023-08-30T08:33:19;26.10;99.90
4615;DHT22;2320;51.362;6.946;2023-08-30T08:35:47;25.80;99.90
4615;DHT22;2320;51.362;6.946;2023-08-30T08:38:13;25.50;99.90
4615;DHT22;2320;51.362;6.946;2023-08-30T08:40:38;25.50;99.90
4615;DHT22;2320;51.362;6.946;2023-08-30T08:43:06;25.40;99.90
4615;DHT22;2320;51.362;6.946;2023-08-30T08:45:35;24.80;99.90
4615;DHT22;2320;51.362;6.946;2023-08-30T08:48:04;25.00;99.90
4615;DHT22;2320;51.362;6.946;2023-08-30T08:50:31;25.10;99.90
4615;DHT22;2320;51.362;6.946;2023-08-30T08:52:57;25.10;99.90
4615;DHT22;2320;51.362;6.946;2023-08-30T08:55:22;25.10;99.90
4615;DHT22;2320;51.362;6.946;2023-08-30T08:57:48;25.00;99.90
4615;DHT22;2320;51.362;6.946;2023-08-30T09:00:14;25.10;99.90
4615;DHT22;2320;51.362;6.946;2023-08-30T09:02:41;25.10;99.90
4615;DHT22;2320;51.362;6.946;2023-08-30T09:05:07;25.50;99.90
4615;DHT22;2320;51.362;6.946;2023-08-30T09:07:32;25.40;99.90
4615;DHT22;2320;51.362;6.946;2023-08-30T09:09:58;25.60;99.90
4615;DHT22;2320;51.362;6.946;2023-08-30T09:12:24;25.50;99.90
4615;DHT22;2320;51.362;6.946;2023-08-30T09:14:55;25.30;99.90
4615;DHT22;2320;51.362;6.946;2023-08-30T09:17:21;25.30;99.90
4615;DHT22;2320;51.362;6.946;2023-08-30T09:19:47;25.10;99.90
4615;DHT22;2320;51.362;6.946;2023-08-30T09:22:12;24.80;99.90
4615;DHT22;2320;51.362;6.946;2023-08-30T09:24:38;24.50;99.90
4615;DHT22;2320;51.362;6.946;2023-08-30T09:27:07;24.20;99.90
4615;DHT22;2320;51.362;6.946;2023-08-30T09:29:33;23.40;99.90
4615;DHT22;2320;51.362;6.946;2023-08-30T09:32:00;23.40;99.90
4615;DHT22;2320;51.362;6.946;2023-08-30T09:34:26;22.90;99.90
4615;DHT22;2320;51.362;6.946;2023-08-30T09:36:52;22.30;99.90
4615;DHT22;2320;51.362;6.946;2023-08-30T09:39:17;21.60;99.90
4615;DHT22;2320;51.362;6.946;2023-08-30T09:41:43;21.60;99.90
4615;DHT22;2320;51.362;6.946;2023-08-30T09:44:12;21.40;99.90
4615;DHT22;2320;51.362;6.946;2023-08-30T09:46:44;21.20;99.90
4615;DHT22;2320;51.362;6.946;2023-08-30T09:49:11;20.90;99.90
4615;DHT22;2320;51.362;6.946;2023-08-30T09:51:37;20.30;99.90
4615;DHT22;2320;51.362;6.946;2023-08-30T09:54:04;19.90;99.90
4615;DHT22;2320;51.362;6.946;2023-08-30T09:56:31;19.50;99.90
4615;DHT22;2320;51.362;6.946;2023-08-30T09:58:58;19.50;99.90
4615;DHT22;2320;51.362;6.946;2023-08-30T10:01:27;19.20;99.90
4615;DHT22;2320;51.362;6.946;2023-08-30T10:03:54;19.20;99.90
4615;DHT22;2320;51.362;6.946;2023-08-30T10:06:20;19.20;99.90
4615;DHT22;2320;51.362;6.946;2023-08-30T10:08:47;19.00;99.90
4615;DHT22;2320;51.362;6.946;2023-08-30T10:11:14;18.80;99.90
4615;DHT22;2320;51.362;6.946;2023-08-30T10:13:40;18.90;99.90
4615;DHT22;2320;51.362;6.946;2023-08-30T10:16:06;19.00;99.90
4615;DHT22;2320;51.362;6.946;2023-08-30T10:18:33;18.80;99.90
4615;DHT22;2320;51.362;6.946;2023-08-30T10:21:01;18.40;99.90
4615;DHT22;2320;51.362;6.946;2023-08-30T10:23:27;18.20;99.90
4615;DHT22;2320;51.362;6.946;2023-08-30T10:25:53;18.00;99.90
4615;DHT22;2320;51.362;6.946;2023-08-30T10:28:19;18.00;99.90
4615;DHT22;2320;51.362;6.946;2023-08-30T10:30:46;17.90;99.90
4615;DHT22;2320;51.362;6.946;2023-08-30T10:33:14;17.80;99.90
4615;DHT22;2320;51.362;6.946;2023-08-30T10:35:48;17.90;99.90
4615;DHT22;2320;51.362;6.946;2023-08-30T10:38:24;17.80;99.90
4615;DHT22;2320;51.362;6.946;2023-08-30T10:40:50;17.80;99.90
4615;DHT22;2320;51.362;6.946;2023-08-30T10:43:15;17.70;99.90
4615;DHT22;2320;51.362;6.946;2023-08-30T10:45:41;17.70;99.90
4615;DHT22;2320;51.362;6.946;2023-08-30T10:48:06;17.70;99.90
4615;DHT22;2320;51.362;6.946;2023-08-30T10:50:32;17.20;99.90
4615;DHT22;2320;51.362;6.946;2023-08-30T10:52:58;17.30;99.90
4615;DHT22;2320;51.362;6.946;2023-08-30T10:55:24;17.30;99.90
4615;DHT22;2320;51.362;6.946;2023-08-30T10:58:02;17.20;99.90
4615;DHT22;2320;51.362;6.946;2023-08-30T11:00:30;17.20;99.90
4615;DHT22;2320;51.362;6.946;2023-08-30T11:02:55;17.10;99.90
4615;DHT22;2320;51.362;6.946;2023-08-30T11:05:22;17.10;99.90
4615;DHT22;2320;51.362;6.946;2023-08-30T11:07:48;17.10;99.90
4615;DHT22;2320;51.362;6.946;2023-08-30T11:10:16;17.10;99.90
4615;DHT22;2320;51.362;6.946;2023-08-30T11:12:42;17.10;99.90
4615;DHT22;2320;51.362;6.946;2023-08-30T11:15:10;17.00;99.90
4615;DHT22;2320;51.362;6.946;2023-08-30T11:17:35;16.90;99.90
4615;DHT22;2320;51.362;6.946;2023-08-30T11:20:08;16.90;99.90
4615;DHT22;2320;51.362;6.946;2023-08-30T11:22:40;17.10;99.90
4615;DHT22;2320;51.362;6.946;2023-08-30T11:25:07;17.00;99.90
4615;DHT22;2320;51.362;6.946;2023-08-30T11:27:33;17.00;99.90
4615;DHT22;2320;51.362;6.946;2023-08-30T11:29:59;16.90;99.90
4615;DHT22;2320;51.362;6.946;2023-08-30T11:32:25;16.70;99.90
4615;DHT22;2320;51.362;6.946;2023-08-30T11:34:57;16.70;99.90
4615;DHT22;2320;51.362;6.946;2023-08-30T11:37:23;16.80;99.90
4615;DHT22;2320;51.362;6.946;2023-08-30T11:39:51;16.60;99.90
4615;DHT22;2320;51.362;6.946;2023-08-30T11:42:17;16.70;99.90
4615;DHT22;2320;51.362;6.946;2023-08-30T11:44:43;16.90;99.90
4615;DHT22;2320;51.362;6.946;2023-08-30T11:47:09;16.90;99.90
4615;DHT22;2320;51.362;6.946;2023-08-30T11:49:34;17.00;99.90
4615;DHT22;2320;51.362;6.946;2023-08-30T11:52:00;17.00;99.90
4615;DHT22;2320;51.362;6.946;2023-08-30T11:54:26;17.00;99.90
4615;DHT22;2320;51.362;6.946;2023-08-30T11:56:51;17.00;99.90
4615;DHT22;2320;51.362;6.946;2023-08-30T11:59:20;17.00;99.90
4615;DHT22;2320;51.362;6.946;2023-08-30T12:01:47;16.90;99.90
4615;DHT22;2320;51.362;6.946;2023-08-30T12:04:13;17.00;99.90
4615;DHT22;2320;51.362;6.946;2023-08-30T12:06:39;17.10;99.90
4615;DHT22;2320;51.362;6.946;2023-08-30T12:09:04;17.20;99.90
4615;DHT22;2320;51.362;6.946;2023-08-30T12:11:33;17.20;99.90
4615;DHT22;2320;51.362;6.946;2023-08-30T12:14:02;17.20;99.90
4615;DHT22;2320;51.362;6.946;2023-08-30T12:16:27;17.20;99.90
4615;DHT22;2320;51.362;6.946;2023-08-30T12:18:53;17.20;99.90
4615;DHT22;2320;51.362;6.946;2023-08-30T12:21:18;17.30;99.90
4615;DHT22;2320;51.362;6.946;2023-08-30T12:23:44;17.30;99.90
4615;DHT22;2320;51.362;6.946;2023-08-30T12:26:10;17.30;99.90
4615;DHT22;2320;51.362;6.946;2023-08-30T12:28:37;17.20;99.90
4615;DHT22;2320;51.362;6.946;2023-08-30T12:31:03;17.30;99.90
4615;DHT22;2320;51.362;6.946;2023-08-30T12:33:35;17.30;99.90
4615;DHT22;2320;51.362;6.946;2023-08-30T12:36:01;17.40;99.90
4615;DHT22;2320;51.362;6.946;2023-08-30T12:38:27;17.50;99.90
4615;DHT22;2320;51.362;6.946;2023-08-30T12:40:55;17.50;99.90
4615;DHT22;2320;51.362;6.946;2023-08-30T12:43:21;17.50;99.90
4615;DHT22;2320;51.362;6.946;2023-08-30T12:45:47;17.40;99.90
4615;DHT22;2320;51.362;6.946;2023-08-30T12:48:14;17.20;99.90
4615;DHT22;2320;51.362;6.946;2023-08-30T12:50:41;17.20;99.90
4615;DHT22;2320;51.362;6.946;2023-08-30T12:53:07;17.20;99.90
4615;DHT22;2320;51.362;6.946;2023-08-30T12:55:33;17.30;99.90
4615;DHT22;2320;51.362;6.946;2023-08-30T12:57:59;17.30;99.90
4615;DHT22;2320;51.362;6.946;2023-08-30T13:00:25;17.30;99.90
4615;DHT22;2320;51.362;6.946;2023-08-30T13:02:51;17.30;99.90
4615;DHT22;2320;51.362;6.946;2023-08-30T13:05:16;17.30;99.90
4615;DHT22;2320;51.362;6.946;2023-08-30T13:07:42;17.10;99.90
4615;DHT22;2320;51.362;6.946;2023-08-30T13:10:08;17.00;99.90
4615;DHT22;2320;51.362;6.946;2023-08-30T13:12:33;16.90;99.90
4615;DHT22;2320;51.362;6.946;2023-08-30T13:14:59;16.90;99.90
4615;DHT22;2320;51.362;6.946;2023-08-30T13:17:24;16.90;99.90
4615;DHT22;2320;51.362;6.946;2023-08-30T13:19:50;16.90;99.90
4615;DHT22;2320;51.362;6.946;2023-08-30T13:22:16;16.80;99.90
4615;DHT22;2320;51.362;6.946;2023-08-30T13:24:41;16.80;99.90
4615;DHT22;2320;51.362;6.946;2023-08-30T13:27:07;16.70;99.90
4615;DHT22;2320;51.362;6.946;2023-08-30T13:29:32;16.70;99.90
4615;DHT22;2320;51.362;6.946;2023-08-30T13:31:58;16.80;99.90
4615;DHT22;2320;51.362;6.946;2023-08-30T13:34:23;16.80;99.90
4615;DHT22;2320;51.362;6.946;2023-08-30T13:36:49;17.00;99.90
4615;DHT22;2320;51.362;6.946;2023-08-30T13:39:14;16.90;99.90
4615;DHT22;2320;51.362;6.946;2023-08-30T13:41:40;17.00;99.90
4615;DHT22;2320;51.362;6.946;2023-08-30T13:44:06;17.10;99.90
4615;DHT22;2320;51.362;6.946;2023-08-30T13:46:31;17.10;99.90
4615;DHT22;2320;51.362;6.946;2023-08-30T13:48:57;17.20;99.90
4615;DHT22;2320;51.362;6.946;2023-08-30T13:51:23;17.20;99.90
4615;DHT22;2320;51.362;6.946;2023-08-30T13:53:48;17.10;99.90
4615;DHT22;2320;51.362;6.946;2023-08-30T13:56:14;17.30;99.90
4615;DHT22;2320;51.362;6.946;2023-08-30T13:58:39;17.30;99.90
4615;DHT22;2320;51.362;6.946;2023-08-30T14:01:05;17.20;99.90
4615;DHT22;2320;51.362;6.946;2023-08-30T14:03:30;17.20;99.90
4615;DHT22;2320;51.362;6.946;2023-08-30T14:05:56;17.20;99.90
4615;DHT22;2320;51.362;6.946;2023-08-30T14:08:21;17.30;99.90
4615;DHT22;2320;51.362;6.946;2023-08-30T14:10:47;17.30;99.90
4615;DHT22;2320;51.362;6.946;2023-08-30T14:13:12;17.30;99.90
4615;DHT22;2320;51.362;6.946;2023-08-30T14:15:38;17.30;99.90
4615;DHT22;2320;51.362;6.946;2023-08-30T14:18:03;17.20;99.90
4615;DHT22;2320;51.362;6.946;2023-08-30T14:20:29;17.20;99.90
4615;DHT22;2320;51.362;6.946;2023-08-30T14:22:54;17.30;99.90
4615;DHT22;2320;51.362;6.946;2023-08-30T14:25:20;17.40;99.90
4615;DHT22;2320;51.362;6.946;2023-08-30T14:27:45;17.50;99.90
4615;DHT22;2320;51.362;6.946;2023-08-30T14:30:11;17.50;99.90
4615;DHT22;2320;51.362;6.946;2023-08-30T14:32:36;17.50;99.90
4615;DHT22;2320;51.362;6.946;2023-08-30T14:35:05;17.50;99.90
4615;DHT22;2320;51.362;6.946;2023-08-30T14:37:31;17.30;99.90
4615;DHT22;2320;51.362;6.946;2023-08-30T14:39:56;17.20;99.90
4615;DHT22;2320;51.362;6.946;2023-08-30T14:42:22;17.00;99.90
4615;DHT22;2320;51.362;6.946;2023-08-30T14:44:50;16.90;99.90
4615;DHT22;2320;51.362;6.946;2023-08-30T14:47:19;16.80;99.90
4615;DHT22;2320;51.362;6.946;2023-08-30T14:49:46;16.80;99.90
4615;DHT22;2320;51.362;6.946;2023-08-30T14:52:12;16.80;99.90
4615;DHT22;2320;51.362;6.946;2023-08-30T14:54:38;16.70;99.90
4615;DHT22;2320;51.362;6.946;2023-08-30T14:57:03;16.60;99.90
4615;DHT22;2320;51.362;6.946;2023-08-30T14:59:28;16.50;99.90
4615;DHT22;2320;51.362;6.946;2023-08-30T15:01:55;16.40;99.90
4615;DHT22;2320;51.362;6.946;2023-08-30T15:04:20;16.40;99.90
4615;DHT22;2320;51.362;6.946;2023-08-30T15:06:46;16.40;99.90
4615;DHT22;2320;51.362;6.946;2023-08-30T15:09:12;16.30;99.90
4615;DHT22;2320;51.362;6.946;2023-08-30T15:11:41;16.30;99.90
4615;DHT22;2320;51.362;6.946;2023-08-30T15:14:07;16.20;99.90
4615;DHT22;2320;51.362;6.946;2023-08-30T15:16:32;16.20;99.90
4615;DHT22;2320;51.362;6.946;2023-08-30T15:18:58;16.00;99.90
4615;DHT22;2320;51.362;6.946;2023-08-30T15:21:23;16.10;99.90
4615;DHT22;2320;51.362;6.946;2023-08-30T15:23:49;16.10;99.90
4615;DHT22;2320;51.362;6.946;2023-08-30T15:26:14;16.30;99.90
4615;DHT22;2320;51.362;6.946;2023-08-30T15:28:42;16.50;99.90
4615;DHT22;2320;51.362;6.946;2023-08-30T15:31:09;16.60;99.90
4615;DHT22;2320;51.362;6.946;2023-08-30T15:33:35;16.60;99.90
4615;DHT22;2320;51.362;6.946;2023-08-30T15:36:00;16.70;99.90
4615;DHT22;2320;51.362;6.946;2023-08-30T15:38:26;16.80;99.90
4615;DHT22;2320;51.362;6.946;2023-08-30T15:40:53;17.00;99.90
4615;DHT22;2320;51.362;6.946;2023-08-30T15:43:18;17.20;99.90
4615;DHT22;2320;51.362;6.946;2023-08-30T15:45:44;17.20;99.90
4615;DHT22;2320;51.362;6.946;2023-08-30T15:48:09;17.40;99.90
4615;DHT22;2320;51.362;6.946;2023-08-30T15:50:35;17.40;99.90
4615;DHT22;2320;51.362;6.946;2023-08-30T15:53:00;17.30;99.90
4615;DHT22;2320;51.362;6.946;2023-08-30T15:55:26;17.30;99.90
4615;DHT22;2320;51.362;6.946;2023-08-30T15:57:53;17.30;99.90
4615;DHT22;2320;51.362;6.946;2023-08-30T16:00:19;17.40;99.90
4615;DHT22;2320;51.362;6.946;2023-08-30T16:02:44;17.40;99.90